sensor_id;sensor_type;location;lat;lon;timestamp;P1;durP1;ratioP1;P2;durP2;ratioP2
38226;SDS011;24026;49.446;8.576;2023-05-27T00:01:05;142.70;;;129.57;;
38226;SDS011;24026;49.446;8.576;2023-05-27T00:03:25;142.75;;;129.63;;
38226;SDS011;24026;49.446;8.576;2023-05-27T00:05:45;142.38;;;129.20;;
38226;SDS011;24026;49.446;8.576;2023-05-27T00:08:06;142.43;;;129.35;;
38226;SDS011;24026;49.446;8.576;2023-05-27T00:10:26;141.85;;;128.88;;
38226;SDS011;24026;49.446;8.576;2023-05-27T00:12:47;143.55;;;130.25;;
38226;SDS011;24026;49.446;8.576;2023-05-27T00:15:07;142.48;;;129.48;;
38226;SDS011;24026;49.446;8.576;2023-05-27T00:17:29;142.68;;;129.32;;
38226;SDS011;24026;49.446;8.576;2023-05-27T00:19:50;142.93;;;129.93;;
38226;SDS011;24026;49.446;8.576;2023-05-27T00:22:11;140.88;;;128.02;;
38226;SDS011;24026;49.446;8.576;2023-05-27T00:24:35;141.73;;;128.77;;
38226;SDS011;24026;49.446;8.576;2023-05-27T00:26:57;142.17;;;129.23;;
38226;SDS011;24026;49.446;8.576;2023-05-27T00:29:17;142.48;;;129.38;;
38226;SDS011;24026;49.446;8.576;2023-05-27T00:31:38;141.57;;;128.63;;
38226;SDS011;24026;49.446;8.576;2023-05-27T00:33:59;143.77;;;130.63;;
38226;SDS011;24026;49.446;8.576;2023-05-27T00:36:19;142.65;;;129.48;;
38226;SDS011;24026;49.446;8.576;2023-05-27T00:38:40;141.73;;;128.73;;
38226;SDS011;24026;49.446;8.576;2023-05-27T00:41:00;143.40;;;130.20;;
38226;SDS011;24026;49.446;8.576;2023-05-27T00:43:23;142.98;;;129.88;;
38226;SDS011;24026;49.446;8.576;2023-05-27T00:45:43;142.90;;;129.73;;
38226;SDS011;24026;49.446;8.576;2023-05-27T00:48:04;142.60;;;129.38;;
38226;SDS011;24026;49.446;8.576;2023-05-27T00:50:24;141.32;;;128.40;;
38226;SDS011;24026;49.446;8.576;2023-05-27T00:52:46;143.05;;;129.93;;
38226;SDS011;24026;49.446;8.576;2023-05-27T00:55:07;142.15;;;128.88;;
38226;SDS011;24026;49.446;8.576;2023-05-27T00:57:28;142.25;;;129.15;;
38226;SDS011;24026;49.446;8.576;2023-05-27T00:59:48;141.88;;;128.77;;
38226;SDS011;24026;49.446;8.576;2023-05-27T01:02:09;141.43;;;128.38;;
38226;SDS011;24026;49.446;8.576;2023-05-27T01:04:30;141.10;;;128.15;;
38226;SDS011;24026;49.446;8.576;2023-05-27T01:12:10;142.80;;;129.52;;
38226;SDS011;24026;49.446;8.576;2023-05-27T01:14:38;141.30;;;128.10;;
38226;SDS011;24026;49.446;8.576;2023-05-27T01:17:03;140.40;;;127.35;;
38226;SDS011;24026;49.446;8.576;2023-05-27T01:19:35;140.82;;;127.82;;
38226;SDS011;24026;49.446;8.576;2023-05-27T01:22:02;141.90;;;128.80;;
38226;SDS011;24026;49.446;8.576;2023-05-27T01:24:24;142.90;;;129.68;;
38226;SDS011;24026;49.446;8.576;2023-05-27T01:26:44;140.80;;;127.80;;
38226;SDS011;24026;49.446;8.576;2023-05-27T01:29:05;140.95;;;127.85;;
38226;SDS011;24026;49.446;8.576;2023-05-27T01:32:10;139.23;;;126.32;;
38226;SDS011;24026;49.446;8.576;2023-05-27T01:34:10;139.27;;;126.37;;
38226;SDS011;24026;49.446;8.576;2023-05-27T01:36:44;140.60;;;127.47;;
38226;SDS011;24026;49.446;8.576;2023-05-27T01:39:09;141.35;;;128.02;;
38226;SDS011;24026;49.446;8.576;2023-05-27T01:41:33;141.10;;;127.90;;
38226;SDS011;24026;49.446;8.576;2023-05-27T01:43:55;140.27;;;127.18;;
38226;SDS011;24026;49.446;8.576;2023-05-27T01:46:16;140.35;;;127.38;;
38226;SDS011;24026;49.446;8.576;2023-05-27T01:48:37;141.15;;;127.88;;
38226;SDS011;24026;49.446;8.576;2023-05-27T01:50:58;140.25;;;127.22;;
38226;SDS011;24026;49.446;8.576;2023-05-27T01:53:18;139.40;;;126.35;;
38226;SDS011;24026;49.446;8.576;2023-05-27T01:55:38;140.77;;;127.78;;
38226;SDS011;24026;49.446;8.576;2023-05-27T01:57:59;140.05;;;127.05;;
38226;SDS011;24026;49.446;8.576;2023-05-27T02:00:19;140.05;;;126.97;;
38226;SDS011;24026;49.446;8.576;2023-05-27T02:02:40;139.05;;;126.20;;
38226;SDS011;24026;49.446;8.576;2023-05-27T02:05:01;140.40;;;127.00;;
38226;SDS011;24026;49.446;8.576;2023-05-27T02:07:22;140.35;;;127.43;;
38226;SDS011;24026;49.446;8.576;2023-05-27T02:09:42;138.70;;;125.90;;
38226;SDS011;24026;49.446;8.576;2023-05-27T02:12:05;141.13;;;127.82;;
38226;SDS011;24026;49.446;8.576;2023-05-27T02:14:26;140.77;;;127.78;;
38226;SDS011;24026;49.446;8.576;2023-05-27T02:16:46;139.25;;;126.43;;
38226;SDS011;24026;49.446;8.576;2023-05-27T02:19:09;139.25;;;126.30;;
38226;SDS011;24026;49.446;8.576;2023-05-27T02:21:29;139.95;;;127.05;;
38226;SDS011;24026;49.446;8.576;2023-05-27T02:23:50;138.40;;;125.72;;
38226;SDS011;24026;49.446;8.576;2023-05-27T02:26:11;139.38;;;126.47;;
38226;SDS011;24026;49.446;8.576;2023-05-27T02:28:31;137.90;;;125.10;;
38226;SDS011;24026;49.446;8.576;2023-05-27T02:30:52;140.20;;;127.15;;
38226;SDS011;24026;49.446;8.576;2023-05-27T02:33:12;139.93;;;126.93;;
38226;SDS011;24026;49.446;8.576;2023-05-27T02:35:33;140.75;;;127.65;;
38226;SDS011;24026;49.446;8.576;2023-05-27T02:37:53;139.10;;;126.10;;
38226;SDS011;24026;49.446;8.576;2023-05-27T02:40:23;137.93;;;125.03;;
38226;SDS011;24026;49.446;8.576;2023-05-27T02:42:44;140.02;;;126.78;;
38226;SDS011;24026;49.446;8.576;2023-05-27T02:45:05;139.60;;;126.47;;
38226;SDS011;24026;49.446;8.576;2023-05-27T02:47:25;137.85;;;125.05;;
38226;SDS011;24026;49.446;8.576;2023-05-27T02:49:46;139.75;;;126.63;;
38226;SDS011;24026;49.446;8.576;2023-05-27T02:52:06;139.75;;;126.75;;
38226;SDS011;24026;49.446;8.576;2023-05-27T02:54:27;140.15;;;127.03;;
38226;SDS011;24026;49.446;8.576;2023-05-27T02:56:47;138.02;;;125.22;;
38226;SDS011;24026;49.446;8.576;2023-05-27T02:59:07;140.00;;;126.97;;
38226;SDS011;24026;49.446;8.576;2023-05-27T03:01:28;139.05;;;126.00;;
38226;SDS011;24026;49.446;8.576;2023-05-27T03:03:48;139.32;;;126.32;;
38226;SDS011;24026;49.446;8.576;2023-05-27T03:06:08;138.98;;;125.97;;
38226;SDS011;24026;49.446;8.576;2023-05-27T03:08:29;139.05;;;126.13;;
38226;SDS011;24026;49.446;8.576;2023-05-27T03:10:49;139.80;;;126.80;;
38226;SDS011;24026;49.446;8.576;2023-05-27T03:13:10;137.43;;;124.72;;
38226;SDS011;24026;49.446;8.576;2023-05-27T03:15:30;138.82;;;126.03;;
38226;SDS011;24026;49.446;8.576;2023-05-27T03:17:51;137.35;;;124.65;;
38226;SDS011;24026;49.446;8.576;2023-05-27T03:20:12;138.93;;;125.82;;
38226;SDS011;24026;49.446;8.576;2023-05-27T03:22:33;141.77;;;128.68;;
38226;SDS011;24026;49.446;8.576;2023-05-27T03:24:54;143.20;;;130.00;;
38226;SDS011;24026;49.446;8.576;2023-05-27T03:27:15;142.45;;;129.45;;
38226;SDS011;24026;49.446;8.576;2023-05-27T03:29:35;142.88;;;129.70;;
38226;SDS011;24026;49.446;8.576;2023-05-27T03:31:56;141.20;;;128.00;;
38226;SDS011;24026;49.446;8.576;2023-05-27T03:34:17;141.63;;;128.52;;
38226;SDS011;24026;49.446;8.576;2023-05-27T03:36:37;140.82;;;127.80;;
38226;SDS011;24026;49.446;8.576;2023-05-27T03:38:58;141.27;;;128.23;;
38226;SDS011;24026;49.446;8.576;2023-05-27T03:41:18;141.88;;;128.77;;
38226;SDS011;24026;49.446;8.576;2023-05-27T03:43:39;141.95;;;128.73;;
38226;SDS011;24026;49.446;8.576;2023-05-27T03:45:59;141.75;;;128.57;;
38226;SDS011;24026;49.446;8.576;2023-05-27T03:48:19;140.65;;;127.65;;
38226;SDS011;24026;49.446;8.576;2023-05-27T03:50:40;141.40;;;128.30;;
38226;SDS011;24026;49.446;8.576;2023-05-27T03:53:00;140.50;;;127.55;;
38226;SDS011;24026;49.446;8.576;2023-05-27T03:55:21;140.35;;;127.55;;
38226;SDS011;24026;49.446;8.576;2023-05-27T03:57:42;139.85;;;126.95;;
38226;SDS011;24026;49.446;8.576;2023-05-27T04:00:03;140.43;;;127.55;;
38226;SDS011;24026;49.446;8.576;2023-05-27T04:02:32;142.63;;;129.52;;
38226;SDS011;24026;49.446;8.576;2023-05-27T04:04:52;142.88;;;129.98;;
38226;SDS011;24026;49.446;8.576;2023-05-27T04:07:13;143.85;;;130.57;;
38226;SDS011;24026;49.446;8.576;2023-05-27T04:09:33;142.75;;;129.57;;
38226;SDS011;24026;49.446;8.576;2023-05-27T04:11:53;140.82;;;127.82;;
38226;SDS011;24026;49.446;8.576;2023-05-27T04:14:14;142.20;;;129.15;;
38226;SDS011;24026;49.446;8.576;2023-05-27T04:16:34;143.43;;;130.20;;
38226;SDS011;24026;49.446;8.576;2023-05-27T04:18:55;144.73;;;131.52;;
38226;SDS011;24026;49.446;8.576;2023-05-27T04:21:16;142.32;;;129.32;;
38226;SDS011;24026;49.446;8.576;2023-05-27T04:23:36;142.18;;;128.90;;
38226;SDS011;24026;49.446;8.576;2023-05-27T04:25:56;141.40;;;128.35;;
38226;SDS011;24026;49.446;8.576;2023-05-27T04:28:17;143.88;;;130.57;;
38226;SDS011;24026;49.446;8.576;2023-05-27T04:30:37;143.35;;;130.05;;
38226;SDS011;24026;49.446;8.576;2023-05-27T04:33:00;143.00;;;129.90;;
38226;SDS011;24026;49.446;8.576;2023-05-27T04:35:21;144.57;;;131.43;;
38226;SDS011;24026;49.446;8.576;2023-05-27T04:37:41;143.40;;;130.20;;
38226;SDS011;24026;49.446;8.576;2023-05-27T04:40:04;143.75;;;130.65;;
38226;SDS011;24026;49.446;8.576;2023-05-27T04:42:28;141.13;;;128.38;;
38226;SDS011;24026;49.446;8.576;2023-05-27T04:44:49;140.70;;;127.90;;
38226;SDS011;24026;49.446;8.576;2023-05-27T04:47:10;140.85;;;127.85;;
38226;SDS011;24026;49.446;8.576;2023-05-27T04:49:31;143.82;;;130.70;;
38226;SDS011;24026;49.446;8.576;2023-05-27T04:51:51;141.05;;;128.07;;
38226;SDS011;24026;49.446;8.576;2023-05-27T04:54:12;142.95;;;129.75;;
38226;SDS011;24026;49.446;8.576;2023-05-27T04:56:32;141.82;;;128.88;;
38226;SDS011;24026;49.446;8.576;2023-05-27T04:58:53;143.45;;;130.23;;
38226;SDS011;24026;49.446;8.576;2023-05-27T05:01:14;142.10;;;129.00;;
38226;SDS011;24026;49.446;8.576;2023-05-27T05:06:10;140.93;;;128.00;;
38226;SDS011;24026;49.446;8.576;2023-05-27T05:08:31;142.68;;;129.60;;
38226;SDS011;24026;49.446;8.576;2023-05-27T05:10:52;143.20;;;130.20;;
38226;SDS011;24026;49.446;8.576;2023-05-27T05:13:12;142.73;;;129.77;;
38226;SDS011;24026;49.446;8.576;2023-05-27T05:15:33;144.52;;;131.02;;
38226;SDS011;24026;49.446;8.576;2023-05-27T05:17:54;143.38;;;130.25;;
38226;SDS011;24026;49.446;8.576;2023-05-27T05:20:15;144.10;;;130.85;;
38226;SDS011;24026;49.446;8.576;2023-05-27T05:22:35;144.25;;;130.93;;
38226;SDS011;24026;49.446;8.576;2023-05-27T05:24:56;145.18;;;131.65;;
38226;SDS011;24026;49.446;8.576;2023-05-27T05:27:16;142.73;;;129.55;;
38226;SDS011;24026;49.446;8.576;2023-05-27T05:29:37;143.05;;;130.05;;
38226;SDS011;24026;49.446;8.576;2023-05-27T05:31:57;143.70;;;130.57;;
38226;SDS011;24026;49.446;8.576;2023-05-27T05:34:18;142.05;;;129.10;;
38226;SDS011;24026;49.446;8.576;2023-05-27T05:36:38;145.05;;;131.85;;
38226;SDS011;24026;49.446;8.576;2023-05-27T05:38:58;144.32;;;131.02;;
38226;SDS011;24026;49.446;8.576;2023-05-27T05:41:19;145.77;;;132.43;;
38226;SDS011;24026;49.446;8.576;2023-05-27T05:43:39;143.88;;;130.68;;
38226;SDS011;24026;49.446;8.576;2023-05-27T05:46:00;143.52;;;130.40;;
38226;SDS011;24026;49.446;8.576;2023-05-27T05:48:21;144.93;;;131.73;;
38226;SDS011;24026;49.446;8.576;2023-05-27T05:50:42;144.50;;;131.18;;
38226;SDS011;24026;49.446;8.576;2023-05-27T05:53:02;143.77;;;130.48;;
38226;SDS011;24026;49.446;8.576;2023-05-27T05:55:23;142.63;;;129.43;;
38226;SDS011;24026;49.446;8.576;2023-05-27T05:57:43;145.30;;;132.00;;
38226;SDS011;24026;49.446;8.576;2023-05-27T06:00:04;141.95;;;129.00;;
38226;SDS011;24026;49.446;8.576;2023-05-27T06:02:25;143.40;;;130.30;;
38226;SDS011;24026;49.446;8.576;2023-05-27T06:04:46;143.23;;;130.07;;
38226;SDS011;24026;49.446;8.576;2023-05-27T06:07:06;142.38;;;129.32;;
38226;SDS011;24026;49.446;8.576;2023-05-27T06:09:26;142.90;;;129.88;;
38226;SDS011;24026;49.446;8.576;2023-05-27T06:11:47;142.63;;;129.57;;
38226;SDS011;24026;49.446;8.576;2023-05-27T06:14:07;144.75;;;131.55;;
38226;SDS011;24026;49.446;8.576;2023-05-27T06:16:28;142.32;;;129.30;;
38226;SDS011;24026;49.446;8.576;2023-05-27T06:18:48;142.65;;;129.65;;
38226;SDS011;24026;49.446;8.576;2023-05-27T06:21:09;143.98;;;131.00;;
38226;SDS011;24026;49.446;8.576;2023-05-27T06:23:29;146.32;;;133.07;;
38226;SDS011;24026;49.446;8.576;2023-05-27T06:25:51;144.15;;;131.05;;
38226;SDS011;24026;49.446;8.576;2023-05-27T06:28:11;141.93;;;129.13;;
38226;SDS011;24026;49.446;8.576;2023-05-27T06:30:32;142.00;;;129.05;;
38226;SDS011;24026;49.446;8.576;2023-05-27T06:32:52;143.30;;;130.32;;
38226;SDS011;24026;49.446;8.576;2023-05-27T06:35:13;143.70;;;130.73;;
38226;SDS011;24026;49.446;8.576;2023-05-27T06:37:33;143.30;;;130.43;;
38226;SDS011;24026;49.446;8.576;2023-05-27T06:39:53;139.48;;;126.80;;
38226;SDS011;24026;49.446;8.576;2023-05-27T06:42:14;140.70;;;128.00;;
38226;SDS011;24026;49.446;8.576;2023-05-27T06:44:35;141.20;;;128.30;;
38226;SDS011;24026;49.446;8.576;2023-05-27T06:46:55;141.38;;;128.48;;
38226;SDS011;24026;49.446;8.576;2023-05-27T06:49:15;142.18;;;129.30;;
38226;SDS011;24026;49.446;8.576;2023-05-27T06:51:36;141.90;;;128.95;;
38226;SDS011;24026;49.446;8.576;2023-05-27T06:53:56;141.70;;;128.80;;
38226;SDS011;24026;49.446;8.576;2023-05-27T06:56:17;144.05;;;130.88;;
38226;SDS011;24026;49.446;8.576;2023-05-27T06:58:37;144.98;;;131.68;;
38226;SDS011;24026;49.446;8.576;2023-05-27T07:00:57;143.98;;;130.98;;
38226;SDS011;24026;49.446;8.576;2023-05-27T07:03:18;143.95;;;130.85;;
38226;SDS011;24026;49.446;8.576;2023-05-27T07:05:38;143.98;;;130.90;;
38226;SDS011;24026;49.446;8.576;2023-05-27T07:07:58;144.82;;;131.68;;
38226;SDS011;24026;49.446;8.576;2023-05-27T07:10:19;143.52;;;130.43;;
38226;SDS011;24026;49.446;8.576;2023-05-27T07:12:39;143.77;;;130.70;;
38226;SDS011;24026;49.446;8.576;2023-05-27T07:15:00;143.85;;;130.63;;
38226;SDS011;24026;49.446;8.576;2023-05-27T07:17:20;145.05;;;132.02;;
38226;SDS011;24026;49.446;8.576;2023-05-27T07:19:40;145.13;;;132.15;;
38226;SDS011;24026;49.446;8.576;2023-05-27T07:22:01;142.75;;;130.05;;
38226;SDS011;24026;49.446;8.576;2023-05-27T07:24:21;143.35;;;130.63;;
38226;SDS011;24026;49.446;8.576;2023-05-27T07:26:41;143.93;;;131.18;;
38226;SDS011;24026;49.446;8.576;2023-05-27T07:29:02;143.10;;;130.27;;
38226;SDS011;24026;49.446;8.576;2023-05-27T07:31:24;144.98;;;131.93;;
38226;SDS011;24026;49.446;8.576;2023-05-27T07:33:45;144.30;;;131.35;;
38226;SDS011;24026;49.446;8.576;2023-05-27T07:36:06;143.93;;;130.98;;
38226;SDS011;24026;49.446;8.576;2023-05-27T07:38:26;145.57;;;132.40;;
38226;SDS011;24026;49.446;8.576;2023-05-27T07:40:47;145.60;;;132.50;;
38226;SDS011;24026;49.446;8.576;2023-05-27T07:43:07;145.18;;;132.13;;
38226;SDS011;24026;49.446;8.576;2023-05-27T07:45:28;144.45;;;131.45;;
38226;SDS011;24026;49.446;8.576;2023-05-27T07:47:48;145.10;;;132.30;;
38226;SDS011;24026;49.446;8.576;2023-05-27T07:50:09;144.50;;;131.70;;
38226;SDS011;24026;49.446;8.576;2023-05-27T07:52:29;144.43;;;131.50;;
38226;SDS011;24026;49.446;8.576;2023-05-27T07:54:49;144.40;;;131.73;;
38226;SDS011;24026;49.446;8.576;2023-05-27T07:57:10;144.85;;;131.95;;
38226;SDS011;24026;49.446;8.576;2023-05-27T07:59:30;143.05;;;130.35;;
38226;SDS011;24026;49.446;8.576;2023-05-27T08:01:51;144.25;;;131.48;;
38226;SDS011;24026;49.446;8.576;2023-05-27T08:04:11;144.57;;;131.80;;
38226;SDS011;24026;49.446;8.576;2023-05-27T08:06:31;146.15;;;133.00;;
38226;SDS011;24026;49.446;8.576;2023-05-27T08:08:52;143.93;;;131.18;;
38226;SDS011;24026;49.446;8.576;2023-05-27T08:11:12;143.00;;;130.35;;
38226;SDS011;24026;49.446;8.576;2023-05-27T08:13:33;140.38;;;127.75;;
38226;SDS011;24026;49.446;8.576;2023-05-27T08:15:53;139.77;;;127.28;;
38226;SDS011;24026;49.446;8.576;2023-05-27T08:18:13;139.65;;;126.97;;
38226;SDS011;24026;49.446;8.576;2023-05-27T08:20:34;138.98;;;126.55;;
38226;SDS011;24026;49.446;8.576;2023-05-27T08:22:54;139.75;;;127.22;;
38226;SDS011;24026;49.446;8.576;2023-05-27T08:25:14;139.77;;;127.15;;
38226;SDS011;24026;49.446;8.576;2023-05-27T08:27:52;140.27;;;127.80;;
38226;SDS011;24026;49.446;8.576;2023-05-27T08:30:13;139.82;;;127.22;;
38226;SDS011;24026;49.446;8.576;2023-05-27T08:32:34;140.57;;;127.97;;
38226;SDS011;24026;49.446;8.576;2023-05-27T08:34:54;141.02;;;128.45;;
38226;SDS011;24026;49.446;8.576;2023-05-27T08:37:17;141.10;;;128.40;;
38226;SDS011;24026;49.446;8.576;2023-05-27T08:39:38;141.40;;;128.80;;
38226;SDS011;24026;49.446;8.576;2023-05-27T08:41:58;141.95;;;129.15;;
38226;SDS011;24026;49.446;8.576;2023-05-27T08:44:23;139.50;;;127.10;;
38226;SDS011;24026;49.446;8.576;2023-05-27T08:46:44;139.82;;;127.32;;
38226;SDS011;24026;49.446;8.576;2023-05-27T08:49:07;140.38;;;127.78;;
38226;SDS011;24026;49.446;8.576;2023-05-27T08:51:28;140.77;;;128.15;;
38226;SDS011;24026;49.446;8.576;2023-05-27T08:53:49;140.57;;;128.07;;
38226;SDS011;24026;49.446;8.576;2023-05-27T08:56:09;140.90;;;128.32;;
38226;SDS011;24026;49.446;8.576;2023-05-27T08:58:32;142.15;;;129.45;;
38226;SDS011;24026;49.446;8.576;2023-05-27T09:00:54;140.60;;;128.13;;
38226;SDS011;24026;49.446;8.576;2023-05-27T09:03:14;142.25;;;129.68;;
38226;SDS011;24026;49.446;8.576;2023-05-27T09:05:35;142.68;;;129.90;;
38226;SDS011;24026;49.446;8.576;2023-05-27T09:07:56;141.88;;;129.23;;
38226;SDS011;24026;49.446;8.576;2023-05-27T09:10:16;142.23;;;129.43;;
38226;SDS011;24026;49.446;8.576;2023-05-27T09:12:37;141.48;;;128.82;;
38226;SDS011;24026;49.446;8.576;2023-05-27T09:14:57;141.45;;;128.90;;
38226;SDS011;24026;49.446;8.576;2023-05-27T09:17:21;143.13;;;130.43;;
38226;SDS011;24026;49.446;8.576;2023-05-27T09:19:46;142.57;;;129.70;;
38226;SDS011;24026;49.446;8.576;2023-05-27T09:22:24;142.60;;;129.82;;
38226;SDS011;24026;49.446;8.576;2023-05-27T09:24:48;142.17;;;129.50;;
38226;SDS011;24026;49.446;8.576;2023-05-27T09:27:18;143.10;;;130.25;;
38226;SDS011;24026;49.446;8.576;2023-05-27T09:29:39;143.75;;;130.68;;
38226;SDS011;24026;49.446;8.576;2023-05-27T09:32:00;142.75;;;129.85;;
38226;SDS011;24026;49.446;8.576;2023-05-27T09:34:21;144.05;;;131.05;;
38226;SDS011;24026;49.446;8.576;2023-05-27T09:36:44;143.90;;;131.07;;
38226;SDS011;24026;49.446;8.576;2023-05-27T09:39:06;144.27;;;131.40;;
38226;SDS011;24026;49.446;8.576;2023-05-27T09:41:26;143.25;;;130.25;;
38226;SDS011;24026;49.446;8.576;2023-05-27T09:43:53;142.73;;;129.90;;
38226;SDS011;24026;49.446;8.576;2023-05-27T09:46:15;142.65;;;129.88;;
38226;SDS011;24026;49.446;8.576;2023-05-27T09:48:36;144.70;;;131.60;;
38226;SDS011;24026;49.446;8.576;2023-05-27T09:50:57;141.18;;;128.60;;
38226;SDS011;24026;49.446;8.576;2023-05-27T09:53:20;141.63;;;129.00;;
38226;SDS011;24026;49.446;8.576;2023-05-27T09:55:43;141.25;;;128.82;;
38226;SDS011;24026;49.446;8.576;2023-05-27T09:58:05;142.10;;;129.60;;
38226;SDS011;24026;49.446;8.576;2023-05-27T10:00:26;142.80;;;130.18;;
38226;SDS011;24026;49.446;8.576;2023-05-27T10:02:47;142.48;;;129.90;;
38226;SDS011;24026;49.446;8.576;2023-05-27T10:05:11;143.52;;;130.85;;
38226;SDS011;24026;49.446;8.576;2023-05-27T10:07:32;143.20;;;130.57;;
38226;SDS011;24026;49.446;8.576;2023-05-27T10:09:58;143.98;;;131.18;;
38226;SDS011;24026;49.446;8.576;2023-05-27T10:12:18;144.63;;;131.73;;
38226;SDS011;24026;49.446;8.576;2023-05-27T10:14:41;144.23;;;131.48;;
38226;SDS011;24026;49.446;8.576;2023-05-27T10:17:05;144.05;;;131.18;;
38226;SDS011;24026;49.446;8.576;2023-05-27T10:21:46;145.05;;;131.98;;
38226;SDS011;24026;49.446;8.576;2023-05-27T10:24:09;143.82;;;131.07;;
38226;SDS011;24026;49.446;8.576;2023-05-27T10:26:37;143.32;;;130.43;;
38226;SDS011;24026;49.446;8.576;2023-05-27T10:31:30;144.00;;;131.43;;
38226;SDS011;24026;49.446;8.576;2023-05-27T10:33:51;144.55;;;131.77;;
38226;SDS011;24026;49.446;8.576;2023-05-27T10:36:16;146.18;;;133.25;;
38226;SDS011;24026;49.446;8.576;2023-05-27T10:38:42;146.95;;;133.88;;
38226;SDS011;24026;49.446;8.576;2023-05-27T10:41:14;145.27;;;132.20;;
38226;SDS011;24026;49.446;8.576;2023-05-27T10:43:34;146.68;;;133.85;;
38226;SDS011;24026;49.446;8.576;2023-05-27T10:46:06;146.35;;;133.45;;
38226;SDS011;24026;49.446;8.576;2023-05-27T10:48:28;147.63;;;134.63;;
38226;SDS011;24026;49.446;8.576;2023-05-27T10:50:51;145.45;;;132.65;;
38226;SDS011;24026;49.446;8.576;2023-05-27T10:53:12;147.38;;;134.32;;
38226;SDS011;24026;49.446;8.576;2023-05-27T10:55:34;147.30;;;134.40;;
38226;SDS011;24026;49.446;8.576;2023-05-27T10:57:56;146.95;;;134.07;;
38226;SDS011;24026;49.446;8.576;2023-05-27T11:00:17;145.85;;;133.07;;
38226;SDS011;24026;49.446;8.576;2023-05-27T11:02:40;145.85;;;133.13;;
38226;SDS011;24026;49.446;8.576;2023-05-27T11:05:00;145.98;;;133.38;;
38226;SDS011;24026;49.446;8.576;2023-05-27T11:07:21;146.73;;;133.90;;
38226;SDS011;24026;49.446;8.576;2023-05-27T11:09:43;147.18;;;134.38;;
38226;SDS011;24026;49.446;8.576;2023-05-27T11:12:04;145.43;;;132.70;;
38226;SDS011;24026;49.446;8.576;2023-05-27T11:14:25;145.70;;;132.88;;
38226;SDS011;24026;49.446;8.576;2023-05-27T11:16:46;145.23;;;132.57;;
38226;SDS011;24026;49.446;8.576;2023-05-27T11:19:10;146.13;;;133.57;;
38226;SDS011;24026;49.446;8.576;2023-05-27T11:21:31;146.70;;;134.10;;
38226;SDS011;24026;49.446;8.576;2023-05-27T11:23:51;146.45;;;133.70;;
38226;SDS011;24026;49.446;8.576;2023-05-27T11:28:33;145.50;;;132.70;;
38226;SDS011;24026;49.446;8.576;2023-05-27T11:31:03;146.43;;;133.80;;
38226;SDS011;24026;49.446;8.576;2023-05-27T11:33:30;145.52;;;132.82;;
38226;SDS011;24026;49.446;8.576;2023-05-27T11:36:02;146.60;;;133.90;;
38226;SDS011;24026;49.446;8.576;2023-05-27T11:38:23;145.90;;;133.35;;
38226;SDS011;24026;49.446;8.576;2023-05-27T11:40:43;147.30;;;134.50;;
38226;SDS011;24026;49.446;8.576;2023-05-27T11:43:04;146.80;;;134.20;;
38226;SDS011;24026;49.446;8.576;2023-05-27T11:45:24;146.10;;;133.55;;
38226;SDS011;24026;49.446;8.576;2023-05-27T11:47:46;146.68;;;133.88;;
38226;SDS011;24026;49.446;8.576;2023-05-27T11:50:10;147.10;;;134.40;;
38226;SDS011;24026;49.446;8.576;2023-05-27T11:52:30;146.90;;;134.27;;
38226;SDS011;24026;49.446;8.576;2023-05-27T11:54:51;148.68;;;135.63;;
38226;SDS011;24026;49.446;8.576;2023-05-27T11:57:11;148.95;;;136.25;;
38226;SDS011;24026;49.446;8.576;2023-05-27T11:59:33;148.65;;;135.85;;
38226;SDS011;24026;49.446;8.576;2023-05-27T12:01:54;146.30;;;133.73;;
38226;SDS011;24026;49.446;8.576;2023-05-27T12:04:15;148.68;;;135.82;;
38226;SDS011;24026;49.446;8.576;2023-05-27T12:06:36;147.45;;;134.75;;
38226;SDS011;24026;49.446;8.576;2023-05-27T12:09:01;152.13;;;139.23;;
38226;SDS011;24026;49.446;8.576;2023-05-27T12:11:25;153.57;;;140.63;;
38226;SDS011;24026;49.446;8.576;2023-05-27T12:13:46;152.88;;;139.98;;
38226;SDS011;24026;49.446;8.576;2023-05-27T12:16:07;151.93;;;139.07;;
38226;SDS011;24026;49.446;8.576;2023-05-27T12:18:28;152.60;;;139.65;;
38226;SDS011;24026;49.446;8.576;2023-05-27T12:20:49;155.15;;;142.02;;
38226;SDS011;24026;49.446;8.576;2023-05-27T12:23:10;153.35;;;140.35;;
38226;SDS011;24026;49.446;8.576;2023-05-27T12:25:30;152.52;;;139.55;;
38226;SDS011;24026;49.446;8.576;2023-05-27T12:27:51;154.68;;;141.65;;
38226;SDS011;24026;49.446;8.576;2023-05-27T12:30:11;156.85;;;143.65;;
38226;SDS011;24026;49.446;8.576;2023-05-27T12:32:33;154.18;;;141.13;;
38226;SDS011;24026;49.446;8.576;2023-05-27T12:34:53;154.13;;;140.98;;
38226;SDS011;24026;49.446;8.576;2023-05-27T12:37:13;154.23;;;141.25;;
38226;SDS011;24026;49.446;8.576;2023-05-27T12:39:34;153.43;;;140.48;;
38226;SDS011;24026;49.446;8.576;2023-05-27T12:41:54;153.90;;;140.93;;
38226;SDS011;24026;49.446;8.576;2023-05-27T12:44:14;154.05;;;141.10;;
38226;SDS011;24026;49.446;8.576;2023-05-27T12:46:35;153.75;;;140.85;;
38226;SDS011;24026;49.446;8.576;2023-05-27T12:48:57;153.25;;;140.32;;
38226;SDS011;24026;49.446;8.576;2023-05-27T12:51:19;154.40;;;141.38;;
38226;SDS011;24026;49.446;8.576;2023-05-27T12:53:40;153.90;;;140.77;;
38226;SDS011;24026;49.446;8.576;2023-05-27T12:56:02;153.63;;;140.63;;
38226;SDS011;24026;49.446;8.576;2023-05-27T12:58:22;154.80;;;141.73;;
38226;SDS011;24026;49.446;8.576;2023-05-27T13:00:42;153.50;;;140.70;;
38226;SDS011;24026;49.446;8.576;2023-05-27T13:03:05;153.77;;;140.77;;
38226;SDS011;24026;49.446;8.576;2023-05-27T13:05:26;153.85;;;140.90;;
38226;SDS011;24026;49.446;8.576;2023-05-27T13:07:54;153.93;;;140.98;;
38226;SDS011;24026;49.446;8.576;2023-05-27T13:10:16;154.50;;;141.50;;
38226;SDS011;24026;49.446;8.576;2023-05-27T13:12:41;156.02;;;142.88;;
38226;SDS011;24026;49.446;8.576;2023-05-27T13:15:03;155.95;;;142.55;;
38226;SDS011;24026;49.446;8.576;2023-05-27T13:17:24;154.00;;;141.10;;
38226;SDS011;24026;49.446;8.576;2023-05-27T13:19:44;155.60;;;142.52;;
38226;SDS011;24026;49.446;8.576;2023-05-27T13:22:05;155.30;;;142.35;;
38226;SDS011;24026;49.446;8.576;2023-05-27T13:24:25;155.95;;;142.73;;
38226;SDS011;24026;49.446;8.576;2023-05-27T13:26:46;153.45;;;140.48;;
38226;SDS011;24026;49.446;8.576;2023-05-27T13:29:07;154.70;;;141.75;;
38226;SDS011;24026;49.446;8.576;2023-05-27T13:31:28;155.02;;;142.02;;
38226;SDS011;24026;49.446;8.576;2023-05-27T13:33:49;155.65;;;142.48;;
38226;SDS011;24026;49.446;8.576;2023-05-27T13:36:11;154.75;;;141.75;;
38226;SDS011;24026;49.446;8.576;2023-05-27T13:38:33;154.55;;;141.55;;